sensor_id;sensor_type;location;lat;lon;timestamp;P1;durP1;ratioP1;P2;durP2;ratioP2
11763;SDS011;5939;56.522;14.950;2023-03-20T00:00:49;9.97;;;7.33;;
11763;SDS011;5939;56.522;14.950;2023-03-20T00:03:15;8.40;;;6.47;;
11763;SDS011;5939;56.522;14.950;2023-03-20T00:05:41;9.83;;;7.60;;
11763;SDS011;5939;56.522;14.950;2023-03-20T00:08:08;9.23;;;7.43;;
11763;SDS011;5939;56.522;14.950;2023-03-20T00:10:43;10.10;;;7.40;;
11763;SDS011;5939;56.522;14.950;2023-03-20T00:13:12;10.07;;;7.67;;
11763;SDS011;5939;56.522;14.950;2023-03-20T00:15:43;10.27;;;7.67;;
11763;SDS011;5939;56.522;14.950;2023-03-20T00:18:13;10.97;;;7.57;;
11763;SDS011;5939;56.522;14.950;2023-03-20T00:20:42;10.10;;;7.23;;
11763;SDS011;5939;56.522;14.950;2023-03-20T00:23:09;10.17;;;7.30;;
11763;SDS011;5939;56.522;14.950;2023-03-20T00:25:36;9.60;;;6.47;;
11763;SDS011;5939;56.522;14.950;2023-03-20T00:28:11;10.33;;;7.10;;
11763;SDS011;5939;56.522;14.950;2023-03-20T00:34:01;9.83;;;7.30;;
11763;SDS011;5939;56.522;14.950;2023-03-20T00:36:29;7.17;;;5.73;;
11763;SDS011;5939;56.522;14.950;2023-03-20T00:38:55;9.80;;;7.10;;
11763;SDS011;5939;56.522;14.950;2023-03-20T00:43:55;8.53;;;6.43;;
11763;SDS011;5939;56.522;14.950;2023-03-20T00:46:24;8.77;;;7.20;;
11763;SDS011;5939;56.522;14.950;2023-03-20T00:48:51;10.10;;;7.43;;
11763;SDS011;5939;56.522;14.950;2023-03-20T00:51:17;9.23;;;6.87;;
11763;SDS011;5939;56.522;14.950;2023-03-20T00:53:43;9.07;;;6.77;;
11763;SDS011;5939;56.522;14.950;2023-03-20T00:56:43;8.00;;;6.60;;
11763;SDS011;5939;56.522;14.950;2023-03-20T00:59:03;8.63;;;6.80;;
11763;SDS011;5939;56.522;14.950;2023-03-20T01:01:29;8.30;;;6.10;;
11763;SDS011;5939;56.522;14.950;2023-03-20T01:03:56;8.20;;;6.70;;
11763;SDS011;5939;56.522;14.950;2023-03-20T01:06:23;8.27;;;6.20;;
11763;SDS011;5939;56.522;14.950;2023-03-20T01:08:48;8.80;;;6.73;;
11763;SDS011;5939;56.522;14.950;2023-03-20T01:11:15;8.17;;;6.90;;
11763;SDS011;5939;56.522;14.950;2023-03-20T01:13:47;8.63;;;6.73;;
11763;SDS011;5939;56.522;14.950;2023-03-20T01:16:16;8.90;;;7.20;;
11763;SDS011;5939;56.522;14.950;2023-03-20T01:18:45;8.57;;;7.10;;
11763;SDS011;5939;56.522;14.950;2023-03-20T01:21:11;8.13;;;6.37;;
11763;SDS011;5939;56.522;14.950;2023-03-20T01:23:37;8.47;;;6.60;;
11763;SDS011;5939;56.522;14.950;2023-03-20T01:26:03;9.03;;;6.97;;
11763;SDS011;5939;56.522;14.950;2023-03-20T01:28:42;9.77;;;7.13;;
11763;SDS011;5939;56.522;14.950;2023-03-20T01:31:08;10.13;;;7.47;;
11763;SDS011;5939;56.522;14.950;2023-03-20T01:33:34;8.70;;;6.63;;
11763;SDS011;5939;56.522;14.950;2023-03-20T01:36:00;9.20;;;7.70;;
11763;SDS011;5939;56.522;14.950;2023-03-20T01:38:26;8.67;;;6.57;;
11763;SDS011;5939;56.522;14.950;2023-03-20T01:43:31;9.13;;;6.53;;
11763;SDS011;5939;56.522;14.950;2023-03-20T01:46:02;9.20;;;6.90;;
11763;SDS011;5939;56.522;14.950;2023-03-20T01:51:14;9.33;;;7.30;;
11763;SDS011;5939;56.522;14.950;2023-03-20T01:53:40;9.43;;;6.70;;
11763;SDS011;5939;56.522;14.950;2023-03-20T01:56:07;8.80;;;6.40;;
11763;SDS011;5939;56.522;14.950;2023-03-20T01:58:34;8.67;;;6.47;;
11763;SDS011;5939;56.522;14.950;2023-03-20T02:01:03;8.07;;;6.80;;
11763;SDS011;5939;56.522;14.950;2023-03-20T02:03:30;9.57;;;7.17;;
11763;SDS011;5939;56.522;14.950;2023-03-20T02:05:57;10.37;;;6.90;;
11763;SDS011;5939;56.522;14.950;2023-03-20T02:10:57;8.43;;;6.53;;
11763;SDS011;5939;56.522;14.950;2023-03-20T02:13:28;9.37;;;6.37;;
11763;SDS011;5939;56.522;14.950;2023-03-20T02:16:01;7.73;;;5.97;;
11763;SDS011;5939;56.522;14.950;2023-03-20T02:18:40;9.37;;;6.97;;
11763;SDS011;5939;56.522;14.950;2023-03-20T02:35:48;9.67;;;6.63;;
11763;SDS011;5939;56.522;14.950;2023-03-20T02:38:27;8.83;;;6.17;;
11763;SDS011;5939;56.522;14.950;2023-03-20T02:46:55;11.03;;;6.53;;
11763;SDS011;5939;56.522;14.950;2023-03-20T02:51:59;8.63;;;6.47;;
11763;SDS011;5939;56.522;14.950;2023-03-20T03:02:39;9.03;;;6.20;;
11763;SDS011;5939;56.522;14.950;2023-03-20T03:05:14;9.30;;;6.37;;
11763;SDS011;5939;56.522;14.950;2023-03-20T03:07:47;10.33;;;7.10;;
11763;SDS011;5939;56.522;14.950;2023-03-20T03:12:45;9.33;;;6.23;;
11763;SDS011;5939;56.522;14.950;2023-03-20T03:15:22;9.50;;;6.50;;
11763;SDS011;5939;56.522;14.950;2023-03-20T03:17:49;10.20;;;6.50;;
11763;SDS011;5939;56.522;14.950;2023-03-20T03:20:22;10.47;;;6.47;;
11763;SDS011;5939;56.522;14.950;2023-03-20T03:22:53;9.67;;;6.33;;
11763;SDS011;5939;56.522;14.950;2023-03-20T03:25:20;12.00;;;7.20;;
11763;SDS011;5939;56.522;14.950;2023-03-20T03:28:01;9.67;;;6.13;;
11763;SDS011;5939;56.522;14.950;2023-03-20T03:30:47;8.77;;;6.20;;
11763;SDS011;5939;56.522;14.950;2023-03-20T03:33:18;10.80;;;6.33;;
11763;SDS011;5939;56.522;14.950;2023-03-20T03:35:47;9.37;;;6.00;;
11763;SDS011;5939;56.522;14.950;2023-03-20T03:41:05;10.43;;;6.33;;
11763;SDS011;5939;56.522;14.950;2023-03-20T03:43:44;9.20;;;5.50;;
11763;SDS011;5939;56.522;14.950;2023-03-20T03:49:12;10.47;;;6.23;;
11763;SDS011;5939;56.522;14.950;2023-03-20T03:51:43;9.97;;;6.57;;
11763;SDS011;5939;56.522;14.950;2023-03-20T03:54:24;10.77;;;6.73;;
11763;SDS011;5939;56.522;14.950;2023-03-20T03:56:55;10.97;;;6.50;;
11763;SDS011;5939;56.522;14.950;2023-03-20T03:59:24;9.47;;;5.87;;
11763;SDS011;5939;56.522;14.950;2023-03-20T04:02:00;9.90;;;6.77;;
11763;SDS011;5939;56.522;14.950;2023-03-20T04:04:28;10.57;;;6.43;;
11763;SDS011;5939;56.522;14.950;2023-03-20T04:06:56;10.37;;;6.20;;
11763;SDS011;5939;56.522;14.950;2023-03-20T04:09:22;10.13;;;6.70;;
11763;SDS011;5939;56.522;14.950;2023-03-20T04:11:51;11.27;;;6.57;;
11763;SDS011;5939;56.522;14.950;2023-03-20T04:14:17;9.80;;;5.97;;
11763;SDS011;5939;56.522;14.950;2023-03-20T04:16:43;9.60;;;5.90;;
11763;SDS011;5939;56.522;14.950;2023-03-20T04:19:10;11.33;;;6.37;;
11763;SDS011;5939;56.522;14.950;2023-03-20T04:21:35;12.43;;;6.87;;
11763;SDS011;5939;56.522;14.950;2023-03-20T04:24:01;10.97;;;6.90;;
11763;SDS011;5939;56.522;14.950;2023-03-20T04:26:27;9.47;;;5.57;;
11763;SDS011;5939;56.522;14.950;2023-03-20T04:28:53;11.17;;;6.97;;
11763;SDS011;5939;56.522;14.950;2023-03-20T04:31:18;12.93;;;7.13;;
11763;SDS011;5939;56.522;14.950;2023-03-20T04:33:44;10.57;;;6.03;;
11763;SDS011;5939;56.522;14.950;2023-03-20T04:36:10;9.40;;;6.27;;
11763;SDS011;5939;56.522;14.950;2023-03-20T04:38:36;11.87;;;6.70;;
11763;SDS011;5939;56.522;14.950;2023-03-20T04:41:02;9.83;;;6.27;;
11763;SDS011;5939;56.522;14.950;2023-03-20T04:43:28;9.47;;;6.30;;
11763;SDS011;5939;56.522;14.950;2023-03-20T04:45:53;10.80;;;6.50;;
11763;SDS011;5939;56.522;14.950;2023-03-20T04:48:19;11.83;;;6.67;;
11763;SDS011;5939;56.522;14.950;2023-03-20T04:50:45;10.70;;;6.57;;
11763;SDS011;5939;56.522;14.950;2023-03-20T04:53:12;10.13;;;6.40;;
11763;SDS011;5939;56.522;14.950;2023-03-20T04:55:38;11.50;;;7.07;;
11763;SDS011;5939;56.522;14.950;2023-03-20T04:58:04;10.17;;;6.17;;
11763;SDS011;5939;56.522;14.950;2023-03-20T05:00:30;11.63;;;7.13;;
11763;SDS011;5939;56.522;14.950;2023-03-20T05:02:56;12.13;;;6.40;;
11763;SDS011;5939;56.522;14.950;2023-03-20T05:05:22;10.87;;;6.53;;
11763;SDS011;5939;56.522;14.950;2023-03-20T05:07:48;10.37;;;5.90;;
11763;SDS011;5939;56.522;14.950;2023-03-20T05:10:14;9.60;;;6.20;;
11763;SDS011;5939;56.522;14.950;2023-03-20T05:12:40;9.47;;;6.13;;
11763;SDS011;5939;56.522;14.950;2023-03-20T05:15:05;9.37;;;5.80;;
11763;SDS011;5939;56.522;14.950;2023-03-20T05:17:31;9.33;;;5.97;;
11763;SDS011;5939;56.522;14.950;2023-03-20T05:19:57;11.10;;;6.77;;
11763;SDS011;5939;56.522;14.950;2023-03-20T05:22:24;9.33;;;6.10;;
11763;SDS011;5939;56.522;14.950;2023-03-20T05:24:50;9.27;;;6.33;;
11763;SDS011;5939;56.522;14.950;2023-03-20T05:27:16;11.57;;;6.43;;
11763;SDS011;5939;56.522;14.950;2023-03-20T05:29:42;10.50;;;6.37;;
11763;SDS011;5939;56.522;14.950;2023-03-20T05:32:08;11.37;;;6.10;;
11763;SDS011;5939;56.522;14.950;2023-03-20T05:34:33;11.53;;;6.67;;
11763;SDS011;5939;56.522;14.950;2023-03-20T05:36:59;10.80;;;6.60;;
11763;SDS011;5939;56.522;14.950;2023-03-20T05:39:25;10.03;;;6.17;;
11763;SDS011;5939;56.522;14.950;2023-03-20T05:41:51;10.37;;;6.47;;
11763;SDS011;5939;56.522;14.950;2023-03-20T05:44:16;10.23;;;6.57;;
11763;SDS011;5939;56.522;14.950;2023-03-20T05:46:42;9.53;;;5.90;;
11763;SDS011;5939;56.522;14.950;2023-03-20T05:49:08;10.47;;;6.10;;
11763;SDS011;5939;56.522;14.950;2023-03-20T05:51:33;10.77;;;5.97;;
11763;SDS011;5939;56.522;14.950;2023-03-20T05:53:59;10.37;;;6.30;;
11763;SDS011;5939;56.522;14.950;2023-03-20T05:56:25;9.67;;;6.40;;
11763;SDS011;5939;56.522;14.950;2023-03-20T05:58:50;10.73;;;6.47;;
11763;SDS011;5939;56.522;14.950;2023-03-20T06:01:16;10.27;;;6.90;;
11763;SDS011;5939;56.522;14.950;2023-03-20T06:03:45;10.23;;;6.40;;
11763;SDS011;5939;56.522;14.950;2023-03-20T06:06:12;11.90;;;7.17;;
11763;SDS011;5939;56.522;14.950;2023-03-20T06:08:38;12.00;;;6.87;;
11763;SDS011;5939;56.522;14.950;2023-03-20T06:11:04;10.20;;;6.90;;
11763;SDS011;5939;56.522;14.950;2023-03-20T06:13:30;12.63;;;7.00;;
11763;SDS011;5939;56.522;14.950;2023-03-20T06:15:56;11.70;;;7.27;;
11763;SDS011;5939;56.522;14.950;2023-03-20T06:18:22;13.00;;;7.17;;
11763;SDS011;5939;56.522;14.950;2023-03-20T06:20:51;12.67;;;7.20;;
11763;SDS011;5939;56.522;14.950;2023-03-20T06:23:17;9.40;;;6.50;;
11763;SDS011;5939;56.522;14.950;2023-03-20T06:25:43;13.87;;;7.37;;
11763;SDS011;5939;56.522;14.950;2023-03-20T06:28:09;12.17;;;7.13;;
11763;SDS011;5939;56.522;14.950;2023-03-20T06:30:35;12.17;;;6.97;;
11763;SDS011;5939;56.522;14.950;2023-03-20T06:33:01;12.03;;;6.90;;
11763;SDS011;5939;56.522;14.950;2023-03-20T06:35:27;11.20;;;6.63;;
11763;SDS011;5939;56.522;14.950;2023-03-20T06:37:55;10.43;;;7.23;;
11763;SDS011;5939;56.522;14.950;2023-03-20T06:40:22;11.97;;;6.73;;
11763;SDS011;5939;56.522;14.950;2023-03-20T06:42:48;12.50;;;7.33;;
11763;SDS011;5939;56.522;14.950;2023-03-20T06:45:13;10.70;;;6.63;;
11763;SDS011;5939;56.522;14.950;2023-03-20T06:47:39;11.43;;;6.37;;
11763;SDS011;5939;56.522;14.950;2023-03-20T06:50:06;11.17;;;7.33;;
11763;SDS011;5939;56.522;14.950;2023-03-20T06:52:32;11.07;;;6.77;;
11763;SDS011;5939;56.522;14.950;2023-03-20T06:54:58;11.03;;;7.20;;
11763;SDS011;5939;56.522;14.950;2023-03-20T06:57:23;12.10;;;7.20;;
11763;SDS011;5939;56.522;14.950;2023-03-20T06:59:49;11.50;;;7.27;;
11763;SDS011;5939;56.522;14.950;2023-03-20T07:02:15;11.73;;;7.47;;
11763;SDS011;5939;56.522;14.950;2023-03-20T07:04:41;11.70;;;7.23;;
11763;SDS011;5939;56.522;14.950;2023-03-20T07:07:06;11.17;;;6.93;;
11763;SDS011;5939;56.522;14.950;2023-03-20T07:09:33;11.40;;;7.30;;
11763;SDS011;5939;56.522;14.950;2023-03-20T07:11:59;11.77;;;7.27;;
11763;SDS011;5939;56.522;14.950;2023-03-20T07:14:24;13.33;;;7.80;;
11763;SDS011;5939;56.522;14.950;2023-03-20T07:16:50;11.13;;;6.70;;
11763;SDS011;5939;56.522;14.950;2023-03-20T07:19:16;12.07;;;7.73;;
11763;SDS011;5939;56.522;14.950;2023-03-20T07:21:42;14.33;;;7.47;;
11763;SDS011;5939;56.522;14.950;2023-03-20T07:24:09;13.40;;;7.53;;
11763;SDS011;5939;56.522;14.950;2023-03-20T07:26:34;13.43;;;7.63;;
11763;SDS011;5939;56.522;14.950;2023-03-20T07:29:00;12.60;;;7.50;;
11763;SDS011;5939;56.522;14.950;2023-03-20T07:31:26;13.03;;;8.10;;
11763;SDS011;5939;56.522;14.950;2023-03-20T07:33:53;11.43;;;7.67;;
11763;SDS011;5939;56.522;14.950;2023-03-20T07:36:19;12.23;;;7.83;;
11763;SDS011;5939;56.522;14.950;2023-03-20T07:38:45;13.00;;;8.20;;
11763;SDS011;5939;56.522;14.950;2023-03-20T07:41:11;13.23;;;8.30;;
11763;SDS011;5939;56.522;14.950;2023-03-20T07:43:36;13.03;;;8.40;;
11763;SDS011;5939;56.522;14.950;2023-03-20T07:46:03;12.07;;;8.10;;
11763;SDS011;5939;56.522;14.950;2023-03-20T07:48:29;13.47;;;7.90;;
11763;SDS011;5939;56.522;14.950;2023-03-20T07:50:55;12.37;;;7.87;;
11763;SDS011;5939;56.522;14.950;2023-03-20T07:53:20;13.23;;;8.30;;
11763;SDS011;5939;56.522;14.950;2023-03-20T07:55:46;13.63;;;8.67;;
11763;SDS011;5939;56.522;14.950;2023-03-20T07:58:12;13.57;;;8.17;;
11763;SDS011;5939;56.522;14.950;2023-03-20T08:00:37;14.63;;;8.93;;
11763;SDS011;5939;56.522;14.950;2023-03-20T08:03:03;13.00;;;7.80;;
11763;SDS011;5939;56.522;14.950;2023-03-20T08:05:29;14.40;;;8.77;;
11763;SDS011;5939;56.522;14.950;2023-03-20T08:07:55;14.53;;;8.37;;
11763;SDS011;5939;56.522;14.950;2023-03-20T08:10:20;13.37;;;8.00;;
11763;SDS011;5939;56.522;14.950;2023-03-20T08:12:46;12.87;;;8.20;;
11763;SDS011;5939;56.522;14.950;2023-03-20T08:15:12;13.63;;;8.70;;
11763;SDS011;5939;56.522;14.950;2023-03-20T08:17:41;13.10;;;8.30;;
11763;SDS011;5939;56.522;14.950;2023-03-20T08:20:09;13.07;;;8.33;;
11763;SDS011;5939;56.522;14.950;2023-03-20T08:22:37;13.33;;;8.33;;
11763;SDS011;5939;56.522;14.950;2023-03-20T08:25:02;13.43;;;9.20;;
11763;SDS011;5939;56.522;14.950;2023-03-20T08:27:28;14.33;;;9.20;;
11763;SDS011;5939;56.522;14.950;2023-03-20T08:29:55;13.17;;;8.03;;
11763;SDS011;5939;56.522;14.950;2023-03-20T08:32:20;15.77;;;9.77;;
11763;SDS011;5939;56.522;14.950;2023-03-20T08:34:46;14.07;;;9.23;;
11763;SDS011;5939;56.522;14.950;2023-03-20T08:37:12;14.60;;;9.00;;
11763;SDS011;5939;56.522;14.950;2023-03-20T08:39:38;13.13;;;8.17;;
11763;SDS011;5939;56.522;14.950;2023-03-20T08:42:04;13.33;;;8.03;;
11763;SDS011;5939;56.522;14.950;2023-03-20T08:44:30;12.27;;;8.17;;
11763;SDS011;5939;56.522;14.950;2023-03-20T08:46:56;13.57;;;8.83;;
11763;SDS011;5939;56.522;14.950;2023-03-20T08:49:22;12.50;;;7.80;;
11763;SDS011;5939;56.522;14.950;2023-03-20T08:51:48;14.27;;;8.17;;
11763;SDS011;5939;56.522;14.950;2023-03-20T08:54:14;12.77;;;8.43;;
11763;SDS011;5939;56.522;14.950;2023-03-20T08:56:42;13.37;;;8.20;;
11763;SDS011;5939;56.522;14.950;2023-03-20T08:59:09;13.53;;;8.47;;
11763;SDS011;5939;56.522;14.950;2023-03-20T09:01:36;12.90;;;7.97;;
11763;SDS011;5939;56.522;14.950;2023-03-20T09:04:02;13.27;;;8.53;;
11763;SDS011;5939;56.522;14.950;2023-03-20T09:06:28;11.40;;;8.20;;
11763;SDS011;5939;56.522;14.950;2023-03-20T09:08:54;11.97;;;7.70;;
11763;SDS011;5939;56.522;14.950;2023-03-20T09:11:21;12.77;;;8.03;;
11763;SDS011;5939;56.522;14.950;2023-03-20T09:13:47;12.30;;;8.27;;
11763;SDS011;5939;56.522;14.950;2023-03-20T09:16:12;12.77;;;8.40;;
11763;SDS011;5939;56.522;14.950;2023-03-20T09:18:38;10.87;;;7.77;;
11763;SDS011;5939;56.522;14.950;2023-03-20T09:21:04;11.17;;;7.93;;
11763;SDS011;5939;56.522;14.950;2023-03-20T09:23:30;11.70;;;7.53;;
11763;SDS011;5939;56.522;14.950;2023-03-20T09:25:56;10.90;;;7.00;;
11763;SDS011;5939;56.522;14.950;2023-03-20T09:28:22;12.83;;;7.50;;
11763;SDS011;5939;56.522;14.950;2023-03-20T09:30:48;10.60;;;7.17;;
11763;SDS011;5939;56.522;14.950;2023-03-20T09:33:13;10.23;;;7.00;;
11763;SDS011;5939;56.522;14.950;2023-03-20T09:35:40;9.53;;;6.33;;
11763;SDS011;5939;56.522;14.950;2023-03-20T09:38:06;11.90;;;7.10;;
11763;SDS011;5939;56.522;14.950;2023-03-20T09:40:51;9.70;;;7.20;;
11763;SDS011;5939;56.522;14.950;2023-03-20T09:46:18;12.60;;;7.97;;
11763;SDS011;5939;56.522;14.950;2023-03-20T09:51:29;11.07;;;6.87;;
11763;SDS011;5939;56.522;14.950;2023-03-20T09:54:20;10.83;;;7.10;;
11763;SDS011;5939;56.522;14.950;2023-03-20T09:56:52;10.63;;;6.33;;
11763;SDS011;5939;56.522;14.950;2023-03-20T09:59:20;9.57;;;6.07;;
11763;SDS011;5939;56.522;14.950;2023-03-20T10:01:51;10.87;;;6.53;;
11763;SDS011;5939;56.522;14.950;2023-03-20T10:04:19;9.17;;;6.33;;
11763;SDS011;5939;56.522;14.950;2023-03-20T10:06:45;8.63;;;5.93;;
11763;SDS011;5939;56.522;14.950;2023-03-20T10:09:15;7.93;;;5.80;;
11763;SDS011;5939;56.522;14.950;2023-03-20T10:19:56;7.30;;;5.27;;
11763;SDS011;5939;56.522;14.950;2023-03-20T10:22:27;8.13;;;5.50;;
11763;SDS011;5939;56.522;14.950;2023-03-20T10:27:51;6.30;;;4.53;;
11763;SDS011;5939;56.522;14.950;2023-03-20T10:38:47;6.53;;;4.33;;
11763;SDS011;5939;56.522;14.950;2023-03-20T10:41:29;6.47;;;4.50;;
11763;SDS011;5939;56.522;14.950;2023-03-20T10:43:59;6.97;;;4.30;;
11763;SDS011;5939;56.522;14.950;2023-03-20T10:46:27;5.37;;;3.97;;
11763;SDS011;5939;56.522;14.950;2023-03-20T10:54:06;4.80;;;3.57;;
11763;SDS011;5939;56.522;14.950;2023-03-20T10:56:46;5.43;;;4.20;;
11763;SDS011;5939;56.522;14.950;2023-03-20T10:59:21;5.07;;;3.47;;
11763;SDS011;5939;56.522;14.950;2023-03-20T11:01:51;5.23;;;3.63;;
11763;SDS011;5939;56.522;14.950;2023-03-20T11:04:17;4.80;;;3.50;;
11763;SDS011;5939;56.522;14.950;2023-03-20T11:06:48;4.23;;;3.37;;
11763;SDS011;5939;56.522;14.950;2023-03-20T11:09:21;3.97;;;2.80;;
11763;SDS011;5939;56.522;14.950;2023-03-20T11:11:50;4.17;;;2.70;;
11763;SDS011;5939;56.522;14.950;2023-03-20T11:14:22;3.97;;;3.33;;
11763;SDS011;5939;56.522;14.950;2023-03-20T11:16:50;3.77;;;3.37;;
11763;SDS011;5939;56.522;14.950;2023-03-20T11:19:18;3.67;;;2.87;;
11763;SDS011;5939;56.522;14.950;2023-03-20T11:21:47;3.67;;;2.97;;
11763;SDS011;5939;56.522;14.950;2023-03-20T11:24:25;3.13;;;2.77;;
11763;SDS011;5939;56.522;14.950;2023-03-20T11:27:04;4.97;;;3.00;;
11763;SDS011;5939;56.522;14.950;2023-03-20T11:29:36;4.90;;;2.33;;
11763;SDS011;5939;56.522;14.950;2023-03-20T11:32:04;2.97;;;2.43;;
11763;SDS011;5939;56.522;14.950;2023-03-20T11:34:34;3.10;;;2.43;;
11763;SDS011;5939;56.522;14.950;2023-03-20T11:37:05;3.90;;;2.60;;
11763;SDS011;5939;56.522;14.950;2023-03-20T11:42:54;3.57;;;2.40;;
11763;SDS011;5939;56.522;14.950;2023-03-20T11:48:24;2.27;;;1.90;;
11763;SDS011;5939;56.522;14.950;2023-03-20T11:53:30;2.47;;;1.87;;
11763;SDS011;5939;56.522;14.950;2023-03-20T11:56:04;5.17;;;1.67;;
11763;SDS011;5939;56.522;14.950;2023-03-20T11:58:35;1.90;;;1.50;;
11763;SDS011;5939;56.522;14.950;2023-03-20T12:01:11;3.10;;;1.50;;
11763;SDS011;5939;56.522;14.950;2023-03-20T12:06:26;2.63;;;1.47;;
11763;SDS011;5939;56.522;14.950;2023-03-20T12:09:02;1.97;;;1.57;;
11763;SDS011;5939;56.522;14.950;2023-03-20T12:11:44;2.07;;;1.40;;
11763;SDS011;5939;56.522;14.950;2023-03-20T12:14:22;2.00;;;1.63;;
11763;SDS011;5939;56.522;14.950;2023-03-20T12:19:49;2.10;;;1.53;;
11763;SDS011;5939;56.522;14.950;2023-03-20T12:22:21;1.70;;;1.50;;
11763;SDS011;5939;56.522;14.950;2023-03-20T12:24:53;1.43;;;1.20;;
11763;SDS011;5939;56.522;14.950;2023-03-20T12:27:42;1.37;;;1.27;;
11763;SDS011;5939;56.522;14.950;2023-03-20T12:30:17;1.47;;;1.20;;
11763;SDS011;5939;56.522;14.950;2023-03-20T12:32:53;2.23;;;1.40;;
11763;SDS011;5939;56.522;14.950;2023-03-20T12:35:36;1.27;;;1.17;;
11763;SDS011;5939;56.522;14.950;2023-03-20T12:38:13;1.50;;;1.17;;
11763;SDS011;5939;56.522;14.950;2023-03-20T12:40:54;1.20;;;1.10;;
11763;SDS011;5939;56.522;14.950;2023-03-20T12:43:31;1.37;;;1.10;;
11763;SDS011;5939;56.522;14.950;2023-03-20T12:46:21;1.27;;;1.17;;
11763;SDS011;5939;56.522;14.950;2023-03-20T12:49:06;1.20;;;1.10;;
11763;SDS011;5939;56.522;14.950;2023-03-20T12:51:52;1.13;;;1.03;;
11763;SDS011;5939;56.522;14.950;2023-03-20T12:54:59;1.40;;;1.10;;
11763;SDS011;5939;56.522;14.950;2023-03-20T12:57:55;1.13;;;1.07;;
11763;SDS011;5939;56.522;14.950;2023-03-20T13:00:33;0.90;;;0.90;;
11763;SDS011;5939;56.522;14.950;2023-03-20T13:09:04;1.20;;;1.10;;
11763;SDS011;5939;56.522;14.950;2023-03-20T13:14:36;1.17;;;1.00;;
11763;SDS011;5939;56.522;14.950;2023-03-20T13:20:08;1.00;;;0.83;;
11763;SDS011;5939;56.522;14.950;2023-03-20T13:28:15;1.00;;;0.90;;
11763;SDS011;5939;56.522;14.950;2023-03-20T13:31:51;0.90;;;0.80;;
11763;SDS011;5939;56.522;14.950;2023-03-20T13:34:06;1.17;;;1.00;;
11763;SDS011;5939;56.522;14.950;2023-03-20T13:39:31;1.00;;;0.90;;
11763;SDS011;5939;56.522;14.950;2023-03-20T13:42:05;0.80;;;0.80;;
11763;SDS011;5939;56.522;14.950;2023-03-20T13:44:38;0.90;;;0.90;;
11763;SDS011;5939;56.522;14.950;2023-03-20T13:47:10;0.80;;;0.80;;
11763;SDS011;5939;56.522;14.950;2023-03-20T13:49:52;0.60;;;0.60;;
11763;SDS011;5939;56.522;14.950;2023-03-20T13:52:43;0.70;;;0.70;;
11763;SDS011;5939;56.522;14.950;2023-03-20T13:55:15;0.67;;;0.67;;
11763;SDS011;5939;56.522;14.950;2023-03-20T13:58:05;1.33;;;0.60;;
11763;SDS011;5939;56.522;14.950;2023-03-20T14:03:28;0.70;;;0.70;;
11763;SDS011;5939;56.522;14.950;2023-03-20T14:05:58;0.77;;;0.77;;
11763;SDS011;5939;56.522;14.950;2023-03-20T14:16:36;0.67;;;0.67;;
11763;SDS011;5939;56.522;14.950;2023-03-20T14:19:18;0.80;;;0.80;;
11763;SDS011;5939;56.522;14.950;2023-03-20T14:21:45;0.70;;;0.70;;
11763;SDS011;5939;56.522;14.950;2023-03-20T14:24:14;0.60;;;0.60;;
11763;SDS011;5939;56.522;14.950;2023-03-20T14:26:41;0.70;;;0.70;;
11763;SDS011;5939;56.522;14.950;2023-03-20T14:31:37;0.60;;;0.60;;
11763;SDS011;5939;56.522;14.950;2023-03-20T14:47:23;0.90;;;0.90;;
11763;SDS011;5939;56.522;14.950;2023-03-20T14:50:01;0.80;;;0.80;;
11763;SDS011;5939;56.522;14.950;2023-03-20T15:01:05;2.00;;;0.70;;
11763;SDS011;5939;56.522;14.950;2023-03-20T15:03:33;0.60;;;0.60;;
11763;SDS011;5939;56.522;14.950;2023-03-20T15:06:00;0.60;;;0.60;;
11763;SDS011;5939;56.522;14.950;2023-03-20T15:08:34;0.53;;;0.53;;
11763;SDS011;5939;56.522;14.950;2023-03-20T15:11:07;0.67;;;0.67;;
11763;SDS011;5939;56.522;14.950;2023-03-20T15:13:35;0.53;;;0.53;;
11763;SDS011;5939;56.522;14.950;2023-03-20T15:18:34;0.63;;;0.63;;
11763;SDS011;5939;56.522;14.950;2023-03-20T15:21:01;0.67;;;0.67;;
11763;SDS011;5939;56.522;14.950;2023-03-20T15:23:27;0.60;;;0.60;;
11763;SDS011;5939;56.522;14.950;2023-03-20T15:25:53;0.60;;;0.60;;
11763;SDS011;5939;56.522;14.950;2023-03-20T15:28:23;0.53;;;0.50;;
11763;SDS011;5939;56.522;14.950;2023-03-20T15:30:51;0.50;;;0.50;;
11763;SDS011;5939;56.522;14.950;2023-03-20T15:33:41;0.67;;;0.60;;
11763;SDS011;5939;56.522;14.950;2023-03-20T15:36:10;0.60;;;0.60;;
11763;SDS011;5939;56.522;14.950;2023-03-20T15:38:41;0.60;;;0.60;;
11763;SDS011;5939;56.522;14.950;2023-03-20T15:41:22;0.60;;;0.60;;
11763;SDS011;5939;56.522;14.950;2023-03-20T15:43:48;0.40;;;0.40;;
11763;SDS011;5939;56.522;14.950;2023-03-20T15:46:14;0.70;;;0.70;;
11763;SDS011;5939;56.522;14.950;2023-03-20T15:48:40;0.50;;;0.50;;
11763;SDS011;5939;56.522;14.950;2023-03-20T15:51:10;0.60;;;0.60;;
11763;SDS011;5939;56.522;14.950;2023-03-20T15:53:36;0.60;;;0.60;;
11763;SDS011;5939;56.522;14.950;2023-03-20T15:56:07;0.47;;;0.47;;
11763;SDS011;5939;56.522;14.950;2023-03-20T15:58:38;1.37;;;0.80;;
11763;SDS011;5939;56.522;14.950;2023-03-20T16:01:06;0.50;;;0.50;;
11763;SDS011;5939;56.522;14.950;2023-03-20T16:03:33;0.50;;;0.50;;
11763;SDS011;5939;56.522;14.950;2023-03-20T16:06:02;1.40;;;0.80;;
11763;SDS011;5939;56.522;14.950;2023-03-20T16:08:32;0.50;;;0.50;;
11763;SDS011;5939;56.522;14.950;2023-03-20T16:11:00;0.30;;;0.30;;
11763;SDS011;5939;56.522;14.950;2023-03-20T16:13:38;1.10;;;0.70;;
11763;SDS011;5939;56.522;14.950;2023-03-20T16:16:06;1.50;;;0.70;;
11763;SDS011;5939;56.522;14.950;2023-03-20T16:18:37;0.87;;;0.60;;
11763;SDS011;5939;56.522;14.950;2023-03-20T16:21:04;0.73;;;0.73;;
11763;SDS011;5939;56.522;14.950;2023-03-20T16:23:39;0.87;;;0.67;;
11763;SDS011;5939;56.522;14.950;2023-03-20T16:26:10;1.03;;;0.80;;
11763;SDS011;5939;56.522;14.950;2023-03-20T16:28:41;0.60;;;0.60;;
11763;SDS011;5939;56.522;14.950;2023-03-20T16:33:41;1.17;;;0.80;;
11763;SDS011;5939;56.522;14.950;2023-03-20T16:36:08;0.77;;;0.77;;
11763;SDS011;5939;56.522;14.950;2023-03-20T16:38:39;1.97;;;1.00;;
11763;SDS011;5939;56.522;14.950;2023-03-20T16:41:41;0.93;;;0.80;;
11763;SDS011;5939;56.522;14.950;2023-03-20T16:51:55;0.70;;;0.70;;
11763;SDS011;5939;56.522;14.950;2023-03-20T16:54:21;1.03;;;0.90;;
11763;SDS011;5939;56.522;14.950;2023-03-20T16:56:53;1.53;;;0.90;;
11763;SDS011;5939;56.522;14.950;2023-03-20T16:59:19;1.53;;;0.80;;
11763;SDS011;5939;56.522;14.950;2023-03-20T17:01:46;0.97;;;0.70;;
11763;SDS011;5939;56.522;14.950;2023-03-20T17:06:42;0.80;;;0.80;;
11763;SDS011;5939;56.522;14.950;2023-03-20T17:12:10;0.87;;;0.70;;
11763;SDS011;5939;56.522;14.950;2023-03-20T17:14:38;1.33;;;0.83;;
11763;SDS011;5939;56.522;14.950;2023-03-20T17:17:10;1.70;;;0.80;;
11763;SDS011;5939;56.522;14.950;2023-03-20T17:19:37;0.70;;;0.70;;
11763;SDS011;5939;56.522;14.950;2023-03-20T17:22:09;1.40;;;0.80;;
11763;SDS011;5939;56.522;14.950;2023-03-20T17:24:46;0.80;;;0.80;;
11763;SDS011;5939;56.522;14.950;2023-03-20T17:27:12;3.23;;;1.20;;
11763;SDS011;5939;56.522;14.950;2023-03-20T17:29:39;1.63;;;0.80;;
11763;SDS011;5939;56.522;14.950;2023-03-20T17:32:09;2.10;;;0.80;;
11763;SDS011;5939;56.522;14.950;2023-03-20T17:34:40;1.00;;;0.90;;
11763;SDS011;5939;56.522;14.950;2023-03-20T17:37:10;0.97;;;0.80;;
11763;SDS011;5939;56.522;14.950;2023-03-20T17:39:38;2.10;;;1.20;;
11763;SDS011;5939;56.522;14.950;2023-03-20T17:42:25;1.13;;;0.87;;
11763;SDS011;5939;56.522;14.950;2023-03-20T17:44:55;1.03;;;0.90;;
11763;SDS011;5939;56.522;14.950;2023-03-20T17:47:22;1.07;;;0.97;;
11763;SDS011;5939;56.522;14.950;2023-03-20T17:49:49;0.80;;;0.80;;